sensor_id;sensor_type;location;lat;lon;timestamp;P1;durP1;ratioP1;P2;durP2;ratioP2
63953;SDS011;50128;52.094;5.232;2022-08-01T00:00:22;6.2;;;4.3;;
63953;SDS011;50128;52.094;5.232;2022-08-01T00:02:09;6.5;;;4.41;;
63953;SDS011;50128;52.094;5.232;2022-08-01T00:03:56;7.4;;;4.61;;
63953;SDS011;50128;52.094;5.232;2022-08-01T00:05:45;6.7;;;4.1;;
63953;SDS011;50128;52.094;5.232;2022-08-01T00:07:31;7.8;;;5.0;;
63953;SDS011;50128;52.094;5.232;2022-08-01T00:11:04;8.2;;;5.4;;
63953;SDS011;50128;52.094;5.232;2022-08-01T00:12:51;6.6;;;5.0;;
63953;SDS011;50128;52.094;5.232;2022-08-01T00:14:37;8.31;;;5.2;;
63953;SDS011;50128;52.094;5.232;2022-08-01T00:16:23;8.31;;;5.2;;
63953;SDS011;50128;52.094;5.232;2022-08-01T00:18:11;9.5;;;5.6;;
63953;SDS011;50128;52.094;5.232;2022-08-01T00:19:57;7.6;;;5.6;;
63953;SDS011;50128;52.094;5.232;2022-08-01T00:23:31;8.9;;;6.3;;
63953;SDS011;50128;52.094;5.232;2022-08-01T00:25:18;8.9;;;6.3;;
63953;SDS011;50128;52.094;5.232;2022-08-01T00:27:04;9.21;;;6.1;;
63953;SDS011;50128;52.094;5.232;2022-08-01T00:28:50;8.5;;;5.6;;
63953;SDS011;50128;52.094;5.232;2022-08-01T00:30:37;10.21;;;6.6;;
63953;SDS011;50128;52.094;5.232;2022-08-01T00:34:10;8.1;;;5.6;;
63953;SDS011;50128;52.094;5.232;2022-08-01T00:35:57;9.71;;;6.0;;
63953;SDS011;50128;52.094;5.232;2022-08-01T00:37:44;9.71;;;6.0;;
63953;SDS011;50128;52.094;5.232;2022-08-01T00:39:32;8.71;;;6.0;;
63953;SDS011;50128;52.094;5.232;2022-08-01T00:41:19;9.4;;;6.1;;
63953;SDS011;50128;52.094;5.232;2022-08-01T00:43:05;10.4;;;6.4;;
63953;SDS011;50128;52.094;5.232;2022-08-01T00:46:37;10.1;;;6.8;;
63953;SDS011;50128;52.094;5.232;2022-08-01T00:48:23;8.5;;;6.0;;
63953;SDS011;50128;52.094;5.232;2022-08-01T00:50:10;9.6;;;6.2;;
63953;SDS011;50128;52.094;5.232;2022-08-01T00:51:58;11.5;;;6.4;;
63953;SDS011;50128;52.094;5.232;2022-08-01T00:53:45;11.5;;;6.4;;
63953;SDS011;50128;52.094;5.232;2022-08-01T00:55:31;8.71;;;6.2;;
63953;SDS011;50128;52.094;5.232;2022-08-01T00:59:05;10.6;;;7.4;;
63953;SDS011;50128;52.094;5.232;2022-08-01T01:00:53;10.6;;;7.6;;
63953;SDS011;50128;52.094;5.232;2022-08-01T01:02:39;11.0;;;7.2;;
63953;SDS011;50128;52.094;5.232;2022-08-01T01:04:25;10.9;;;7.9;;
63953;SDS011;50128;52.094;5.232;2022-08-01T01:06:14;11.1;;;7.7;;
63953;SDS011;50128;52.094;5.232;2022-08-01T01:08:14;14.1;;;8.71;;
63953;SDS011;50128;52.094;5.232;2022-08-01T01:10:09;12.2;;;7.9;;
63953;SDS011;50128;52.094;5.232;2022-08-01T01:14:00;12.7;;;8.2;;
63953;SDS011;50128;52.094;5.232;2022-08-01T01:15:55;14.0;;;8.71;;
63953;SDS011;50128;52.094;5.232;2022-08-01T01:17:46;16.0;;;10.1;;
63953;SDS011;50128;52.094;5.232;2022-08-01T01:19:44;14.3;;;9.0;;
63953;SDS011;50128;52.094;5.232;2022-08-01T01:21:35;15.0;;;9.1;;
63953;SDS011;50128;52.094;5.232;2022-08-01T01:23:36;14.4;;;9.4;;
63953;SDS011;50128;52.094;5.232;2022-08-01T01:25:40;13.4;;;8.5;;
63953;SDS011;50128;52.094;5.232;2022-08-01T01:27:40;13.9;;;9.0;;
63953;SDS011;50128;52.094;5.232;2022-08-01T01:29:38;13.6;;;8.5;;
63953;SDS011;50128;52.094;5.232;2022-08-01T01:31:28;13.7;;;8.5;;
63953;SDS011;50128;52.094;5.232;2022-08-01T01:33:19;14.1;;;8.71;;
63953;SDS011;50128;52.094;5.232;2022-08-01T01:37:15;12.8;;;8.0;;
63953;SDS011;50128;52.094;5.232;2022-08-01T01:39:04;13.5;;;7.9;;
63953;SDS011;50128;52.094;5.232;2022-08-01T01:40:52;12.6;;;7.8;;
63953;SDS011;50128;52.094;5.232;2022-08-01T01:42:42;11.2;;;7.5;;
63953;SDS011;50128;52.094;5.232;2022-08-01T01:44:30;13.2;;;8.31;;
63953;SDS011;50128;52.094;5.232;2022-08-01T01:46:18;12.1;;;8.0;;
63953;SDS011;50128;52.094;5.232;2022-08-01T01:48:09;11.6;;;7.6;;
63953;SDS011;50128;52.094;5.232;2022-08-01T01:50:00;12.3;;;7.6;;
63953;SDS011;50128;52.094;5.232;2022-08-01T01:53:38;12.8;;;7.9;;
63953;SDS011;50128;52.094;5.232;2022-08-01T01:55:27;12.7;;;8.2;;
63953;SDS011;50128;52.094;5.232;2022-08-01T01:57:16;14.6;;;8.6;;
63953;SDS011;50128;52.094;5.232;2022-08-01T01:59:04;15.6;;;9.0;;
63953;SDS011;50128;52.094;5.232;2022-08-01T02:00:52;12.5;;;8.31;;
63953;SDS011;50128;52.094;5.232;2022-08-01T02:02:41;14.3;;;9.0;;
63953;SDS011;50128;52.094;5.232;2022-08-01T02:04:28;13.3;;;8.4;;
63953;SDS011;50128;52.094;5.232;2022-08-01T02:08:05;15.2;;;9.1;;
63953;SDS011;50128;52.094;5.232;2022-08-01T02:09:53;15.2;;;9.6;;
63953;SDS011;50128;52.094;5.232;2022-08-01T02:11:41;15.6;;;9.71;;
63953;SDS011;50128;52.094;5.232;2022-08-01T02:13:29;18.41;;;10.3;;
63953;SDS011;50128;52.094;5.232;2022-08-01T02:15:18;16.5;;;9.5;;
63953;SDS011;50128;52.094;5.232;2022-08-01T02:17:05;15.5;;;9.21;;
63953;SDS011;50128;52.094;5.232;2022-08-01T02:20:44;14.2;;;9.21;;
63953;SDS011;50128;52.094;5.232;2022-08-01T02:22:32;15.4;;;10.21;;
63953;SDS011;50128;52.094;5.232;2022-08-01T02:24:35;15.1;;;9.1;;
63953;SDS011;50128;52.094;5.232;2022-08-01T02:26:24;16.2;;;9.81;;
63953;SDS011;50128;52.094;5.232;2022-08-01T02:28:13;15.2;;;9.6;;
63953;SDS011;50128;52.094;5.232;2022-08-01T02:30:05;13.5;;;9.0;;
63953;SDS011;50128;52.094;5.232;2022-08-01T02:31:54;14.9;;;9.0;;
63953;SDS011;50128;52.094;5.232;2022-08-01T02:35:35;13.9;;;8.71;;
63953;SDS011;50128;52.094;5.232;2022-08-01T02:37:27;13.8;;;8.71;;
63953;SDS011;50128;52.094;5.232;2022-08-01T02:39:19;15.1;;;9.31;;
63953;SDS011;50128;52.094;5.232;2022-08-01T02:41:09;12.7;;;8.0;;
63953;SDS011;50128;52.094;5.232;2022-08-01T02:42:59;14.8;;;8.6;;
63953;SDS011;50128;52.094;5.232;2022-08-01T02:44:49;13.7;;;8.71;;
63953;SDS011;50128;52.094;5.232;2022-08-01T02:46:38;13.9;;;8.4;;
63953;SDS011;50128;52.094;5.232;2022-08-01T02:48:29;13.0;;;8.1;;
63953;SDS011;50128;52.094;5.232;2022-08-01T02:52:10;13.2;;;8.71;;
63953;SDS011;50128;52.094;5.232;2022-08-01T02:54:01;11.6;;;8.0;;
63953;SDS011;50128;52.094;5.232;2022-08-01T02:55:51;14.8;;;9.31;;
63953;SDS011;50128;52.094;5.232;2022-08-01T02:57:39;12.9;;;8.5;;
63953;SDS011;50128;52.094;5.232;2022-08-01T02:59:29;14.8;;;9.6;;
63953;SDS011;50128;52.094;5.232;2022-08-01T03:01:19;16.4;;;9.81;;
63953;SDS011;50128;52.094;5.232;2022-08-01T03:03:08;12.5;;;8.5;;
63953;SDS011;50128;52.094;5.232;2022-08-01T03:06:47;14.1;;;9.9;;
63953;SDS011;50128;52.094;5.232;2022-08-01T03:08:33;14.3;;;9.81;;
63953;SDS011;50128;52.094;5.232;2022-08-01T03:10:22;15.9;;;9.4;;
63953;SDS011;50128;52.094;5.232;2022-08-01T03:12:14;14.1;;;9.6;;
63953;SDS011;50128;52.094;5.232;2022-08-01T03:14:12;14.7;;;10.21;;
63953;SDS011;50128;52.094;5.232;2022-08-01T03:16:00;13.9;;;9.81;;
63953;SDS011;50128;52.094;5.232;2022-08-01T03:17:51;13.2;;;9.6;;
63953;SDS011;50128;52.094;5.232;2022-08-01T03:21:30;13.1;;;9.81;;
63953;SDS011;50128;52.094;5.232;2022-08-01T03:23:19;14.8;;;9.9;;
63953;SDS011;50128;52.094;5.232;2022-08-01T03:25:08;11.7;;;8.31;;
63953;SDS011;50128;52.094;5.232;2022-08-01T03:26:57;14.4;;;9.31;;
63953;SDS011;50128;52.094;5.232;2022-08-01T03:28:44;13.2;;;9.1;;
63953;SDS011;50128;52.094;5.232;2022-08-01T03:30:33;12.1;;;8.6;;
63953;SDS011;50128;52.094;5.232;2022-08-01T03:32:22;15.1;;;9.21;;
63953;SDS011;50128;52.094;5.232;2022-08-01T03:35:57;12.7;;;8.9;;
63953;SDS011;50128;52.094;5.232;2022-08-01T03:37:48;13.1;;;8.81;;
63953;SDS011;50128;52.094;5.232;2022-08-01T03:39:40;13.4;;;9.4;;
63953;SDS011;50128;52.094;5.232;2022-08-01T03:41:33;11.9;;;9.5;;
63953;SDS011;50128;52.094;5.232;2022-08-01T03:43:32;10.4;;;8.31;;
63953;SDS011;50128;52.094;5.232;2022-08-01T03:45:25;10.3;;;7.9;;
63953;SDS011;50128;52.094;5.232;2022-08-01T03:47:13;13.4;;;9.9;;
63953;SDS011;50128;52.094;5.232;2022-08-01T03:49:06;11.5;;;9.21;;
63953;SDS011;50128;52.094;5.232;2022-08-01T03:52:57;13.4;;;9.1;;
63953;SDS011;50128;52.094;5.232;2022-08-01T03:54:46;12.5;;;7.8;;
63953;SDS011;50128;52.094;5.232;2022-08-01T03:56:38;12.9;;;9.1;;
63953;SDS011;50128;52.094;5.232;2022-08-01T03:58:28;14.3;;;10.1;;
63953;SDS011;50128;52.094;5.232;2022-08-01T04:00:18;13.0;;;9.31;;
63953;SDS011;50128;52.094;5.232;2022-08-01T04:02:04;13.0;;;9.81;;
63953;SDS011;50128;52.094;5.232;2022-08-01T04:03:53;13.7;;;9.9;;
63953;SDS011;50128;52.094;5.232;2022-08-01T04:07:28;13.1;;;9.9;;
63953;SDS011;50128;52.094;5.232;2022-08-01T04:09:16;13.8;;;10.3;;
63953;SDS011;50128;52.094;5.232;2022-08-01T04:11:03;13.7;;;10.5;;
63953;SDS011;50128;52.094;5.232;2022-08-01T04:12:50;14.8;;;10.21;;
63953;SDS011;50128;52.094;5.232;2022-08-01T04:14:38;14.6;;;10.6;;
63953;SDS011;50128;52.094;5.232;2022-08-01T04:16:24;14.8;;;11.0;;
63953;SDS011;50128;52.094;5.232;2022-08-01T04:19:57;15.1;;;11.1;;
63953;SDS011;50128;52.094;5.232;2022-08-01T04:21:44;15.0;;;11.5;;
63953;SDS011;50128;52.094;5.232;2022-08-01T04:23:31;19.91;;;11.3;;
63953;SDS011;50128;52.094;5.232;2022-08-01T04:25:21;14.1;;;10.8;;
63953;SDS011;50128;52.094;5.232;2022-08-01T04:27:13;15.7;;;11.3;;
63953;SDS011;50128;52.094;5.232;2022-08-01T04:29:10;16.2;;;11.1;;
63953;SDS011;50128;52.094;5.232;2022-08-01T04:30:59;15.3;;;10.8;;
63953;SDS011;50128;52.094;5.232;2022-08-01T04:34:35;15.0;;;10.4;;
63953;SDS011;50128;52.094;5.232;2022-08-01T04:36:25;14.0;;;10.9;;
63953;SDS011;50128;52.094;5.232;2022-08-01T04:38:17;20.0;;;13.2;;
63953;SDS011;50128;52.094;5.232;2022-08-01T04:40:09;15.1;;;11.5;;
63953;SDS011;50128;52.094;5.232;2022-08-01T04:41:58;15.0;;;11.0;;
63953;SDS011;50128;52.094;5.232;2022-08-01T04:43:46;15.1;;;10.8;;
63953;SDS011;50128;52.094;5.232;2022-08-01T04:45:33;13.0;;;10.6;;
63953;SDS011;50128;52.094;5.232;2022-08-01T04:49:09;13.7;;;10.1;;
63953;SDS011;50128;52.094;5.232;2022-08-01T04:50:56;15.1;;;11.0;;
63953;SDS011;50128;52.094;5.232;2022-08-01T04:52:42;15.1;;;10.5;;
63953;SDS011;50128;52.094;5.232;2022-08-01T04:54:30;15.1;;;11.7;;
63953;SDS011;50128;52.094;5.232;2022-08-01T04:56:18;13.8;;;10.8;;
63953;SDS011;50128;52.094;5.232;2022-08-01T04:58:06;15.5;;;11.5;;
63953;SDS011;50128;52.094;5.232;2022-08-01T05:01:47;14.0;;;11.4;;
63953;SDS011;50128;52.094;5.232;2022-08-01T05:03:34;12.7;;;9.6;;
63953;SDS011;50128;52.094;5.232;2022-08-01T05:05:22;12.2;;;9.31;;
63953;SDS011;50128;52.094;5.232;2022-08-01T05:07:08;13.1;;;10.1;;
63953;SDS011;50128;52.094;5.232;2022-08-01T05:08:56;13.7;;;9.1;;
63953;SDS011;50128;52.094;5.232;2022-08-01T05:10:42;11.3;;;9.1;;
63953;SDS011;50128;52.094;5.232;2022-08-01T05:14:15;9.9;;;8.0;;
63953;SDS011;50128;52.094;5.232;2022-08-01T05:16:03;10.5;;;8.31;;
63953;SDS011;50128;52.094;5.232;2022-08-01T05:17:50;13.0;;;8.5;;
63953;SDS011;50128;52.094;5.232;2022-08-01T05:19:37;10.1;;;7.5;;
63953;SDS011;50128;52.094;5.232;2022-08-01T05:21:25;10.0;;;6.9;;
63953;SDS011;50128;52.094;5.232;2022-08-01T05:23:12;7.6;;;6.0;;
63953;SDS011;50128;52.094;5.232;2022-08-01T05:26:45;9.0;;;7.1;;
63953;SDS011;50128;52.094;5.232;2022-08-01T05:28:31;8.31;;;7.0;;
63953;SDS011;50128;52.094;5.232;2022-08-01T05:32:04;8.6;;;7.1;;
63953;SDS011;50128;52.094;5.232;2022-08-01T05:33:51;8.6;;;5.6;;
63953;SDS011;50128;52.094;5.232;2022-08-01T05:37:24;7.9;;;4.7;;
63953;SDS011;50128;52.094;5.232;2022-08-01T05:39:10;6.2;;;4.0;;
63953;SDS011;50128;52.094;5.232;2022-08-01T05:40:57;3.8;;;3.0;;
63953;SDS011;50128;52.094;5.232;2022-08-01T05:42:43;5.2;;;3.5;;
63953;SDS011;50128;52.094;5.232;2022-08-01T05:44:30;4.5;;;2.9;;
63953;SDS011;50128;52.094;5.232;2022-08-01T05:46:17;4.7;;;3.5;;
63953;SDS011;50128;52.094;5.232;2022-08-01T05:49:50;3.9;;;2.4;;
63953;SDS011;50128;52.094;5.232;2022-08-01T05:51:36;4.5;;;3.0;;
63953;SDS011;50128;52.094;5.232;2022-08-01T05:53:22;4.3;;;3.1;;
63953;SDS011;50128;52.094;5.232;2022-08-01T05:55:09;4.91;;;3.5;;
63953;SDS011;50128;52.094;5.232;2022-08-01T05:56:59;5.2;;;3.0;;
63953;SDS011;50128;52.094;5.232;2022-08-01T05:58:46;6.3;;;3.3;;
63953;SDS011;50128;52.094;5.232;2022-08-01T06:02:20;4.61;;;2.7;;
63953;SDS011;50128;52.094;5.232;2022-08-01T06:04:06;4.1;;;2.6;;
63953;SDS011;50128;52.094;5.232;2022-08-01T06:05:52;3.7;;;2.6;;
63953;SDS011;50128;52.094;5.232;2022-08-01T06:07:39;4.3;;;2.7;;
63953;SDS011;50128;52.094;5.232;2022-08-01T06:09:26;4.41;;;2.6;;
63953;SDS011;50128;52.094;5.232;2022-08-01T06:13:02;3.8;;;2.31;;
63953;SDS011;50128;52.094;5.232;2022-08-01T06:14:49;4.5;;;2.4;;
63953;SDS011;50128;52.094;5.232;2022-08-01T06:16:35;3.0;;;2.1;;
63953;SDS011;50128;52.094;5.232;2022-08-01T06:18:21;4.3;;;2.8;;
63953;SDS011;50128;52.094;5.232;2022-08-01T06:20:09;3.7;;;2.5;;
63953;SDS011;50128;52.094;5.232;2022-08-01T06:21:56;3.9;;;2.31;;
63953;SDS011;50128;52.094;5.232;2022-08-01T06:27:15;3.4;;;2.31;;
63953;SDS011;50128;52.094;5.232;2022-08-01T06:29:02;4.1;;;2.1;;
63953;SDS011;50128;52.094;5.232;2022-08-01T06:30:49;2.8;;;1.8;;
63953;SDS011;50128;52.094;5.232;2022-08-01T06:32:36;3.9;;;2.1;;
63953;SDS011;50128;52.094;5.232;2022-08-01T06:34:22;4.61;;;2.31;;
63953;SDS011;50128;52.094;5.232;2022-08-01T06:37:55;3.1;;;2.21;;
63953;SDS011;50128;52.094;5.232;2022-08-01T06:39:42;3.3;;;2.0;;
63953;SDS011;50128;52.094;5.232;2022-08-01T06:41:29;3.3;;;2.21;;
63953;SDS011;50128;52.094;5.232;2022-08-01T06:43:15;2.8;;;1.9;;
63953;SDS011;50128;52.094;5.232;2022-08-01T06:45:02;3.3;;;2.1;;
63953;SDS011;50128;52.094;5.232;2022-08-01T06:48:39;3.6;;;2.21;;
63953;SDS011;50128;52.094;5.232;2022-08-01T06:50:25;3.5;;;1.8;;
63953;SDS011;50128;52.094;5.232;2022-08-01T06:52:11;3.7;;;2.21;;
63953;SDS011;50128;52.094;5.232;2022-08-01T06:53:58;3.7;;;1.9;;
63953;SDS011;50128;52.094;5.232;2022-08-01T06:55:44;3.1;;;2.1;;
63953;SDS011;50128;52.094;5.232;2022-08-01T06:57:30;3.6;;;2.21;;
63953;SDS011;50128;52.094;5.232;2022-08-01T07:01:05;3.6;;;2.1;;
63953;SDS011;50128;52.094;5.232;2022-08-01T07:02:53;3.3;;;2.1;;
63953;SDS011;50128;52.094;5.232;2022-08-01T07:04:42;3.5;;;2.21;;
63953;SDS011;50128;52.094;5.232;2022-08-01T07:06:29;3.5;;;2.21;;
63953;SDS011;50128;52.094;5.232;2022-08-01T07:08:15;2.8;;;1.8;;
63953;SDS011;50128;52.094;5.232;2022-08-01T07:10:03;3.2;;;2.21;;
63953;SDS011;50128;52.094;5.232;2022-08-01T07:13:39;3.4;;;2.4;;
63953;SDS011;50128;52.094;5.232;2022-08-01T07:15:26;2.9;;;2.0;;
63953;SDS011;50128;52.094;5.232;2022-08-01T07:17:12;3.3;;;2.31;;
63953;SDS011;50128;52.094;5.232;2022-08-01T07:19:00;3.7;;;2.1;;
63953;SDS011;50128;52.094;5.232;2022-08-01T07:20:46;3.8;;;2.31;;
63953;SDS011;50128;52.094;5.232;2022-08-01T07:22:32;3.8;;;2.21;;
63953;SDS011;50128;52.094;5.232;2022-08-01T07:26:06;5.8;;;2.4;;
63953;SDS011;50128;52.094;5.232;2022-08-01T07:27:53;4.91;;;2.6;;
63953;SDS011;50128;52.094;5.232;2022-08-01T07:29:38;5.6;;;2.4;;
63953;SDS011;50128;52.094;5.232;2022-08-01T07:31:25;6.1;;;3.1;;
63953;SDS011;50128;52.094;5.232;2022-08-01T07:33:11;5.3;;;3.2;;
63953;SDS011;50128;52.094;5.232;2022-08-01T07:36:45;8.6;;;2.9;;
63953;SDS011;50128;52.094;5.232;2022-08-01T07:38:32;7.7;;;3.1;;
63953;SDS011;50128;52.094;5.232;2022-08-01T07:40:19;7.3;;;3.0;;
63953;SDS011;50128;52.094;5.232;2022-08-01T07:42:06;9.71;;;3.1;;
63953;SDS011;50128;52.094;5.232;2022-08-01T07:43:53;7.8;;;2.9;;
63953;SDS011;50128;52.094;5.232;2022-08-01T07:45:39;11.7;;;3.3;;
63953;SDS011;50128;52.094;5.232;2022-08-01T07:49:13;10.6;;;3.5;;
63953;SDS011;50128;52.094;5.232;2022-08-01T07:51:00;8.81;;;3.3;;
63953;SDS011;50128;52.094;5.232;2022-08-01T07:52:46;14.7;;;4.3;;
63953;SDS011;50128;52.094;5.232;2022-08-01T07:54:33;11.9;;;3.8;;
63953;SDS011;50128;52.094;5.232;2022-08-01T07:56:20;12.9;;;4.0;;
63953;SDS011;50128;52.094;5.232;2022-08-01T07:58:06;12.1;;;3.6;;
63953;SDS011;50128;52.094;5.232;2022-08-01T08:01:41;13.5;;;3.7;;
63953;SDS011;50128;52.094;5.232;2022-08-01T08:03:27;13.2;;;3.1;;
63953;SDS011;50128;52.094;5.232;2022-08-01T08:05:14;12.9;;;3.8;;
63953;SDS011;50128;52.094;5.232;2022-08-01T08:07:01;15.7;;;4.41;;
63953;SDS011;50128;52.094;5.232;2022-08-01T08:08:48;16.0;;;4.1;;
63953;SDS011;50128;52.094;5.232;2022-08-01T08:10:34;13.4;;;4.0;;
63953;SDS011;50128;52.094;5.232;2022-08-01T08:14:07;13.0;;;3.7;;
63953;SDS011;50128;52.094;5.232;2022-08-01T08:15:53;13.7;;;3.8;;
63953;SDS011;50128;52.094;5.232;2022-08-01T08:17:39;14.3;;;3.8;;
63953;SDS011;50128;52.094;5.232;2022-08-01T08:19:26;14.6;;;4.2;;
63953;SDS011;50128;52.094;5.232;2022-08-01T08:21:12;14.9;;;4.1;;
63953;SDS011;50128;52.094;5.232;2022-08-01T08:24:45;11.5;;;3.4;;
63953;SDS011;50128;52.094;5.232;2022-08-01T08:26:32;12.4;;;4.2;;
63953;SDS011;50128;52.094;5.232;2022-08-01T08:28:18;12.1;;;4.0;;
63953;SDS011;50128;52.094;5.232;2022-08-01T08:30:07;10.1;;;3.5;;
63953;SDS011;50128;52.094;5.232;2022-08-01T08:31:54;11.0;;;3.2;;
63953;SDS011;50128;52.094;5.232;2022-08-01T08:33:42;12.8;;;3.7;;
63953;SDS011;50128;52.094;5.232;2022-08-01T08:37:17;11.9;;;3.6;;
63953;SDS011;50128;52.094;5.232;2022-08-01T08:39:03;13.0;;;3.7;;
63953;SDS011;50128;52.094;5.232;2022-08-01T08:40:51;10.3;;;2.8;;
63953;SDS011;50128;52.094;5.232;2022-08-01T08:42:39;13.4;;;3.2;;
63953;SDS011;50128;52.094;5.232;2022-08-01T08:44:26;11.1;;;3.2;;
63953;SDS011;50128;52.094;5.232;2022-08-01T08:46:12;9.1;;;2.9;;
63953;SDS011;50128;52.094;5.232;2022-08-01T08:49:48;11.2;;;3.1;;
63953;SDS011;50128;52.094;5.232;2022-08-01T08:51:37;10.4;;;3.0;;
63953;SDS011;50128;52.094;5.232;2022-08-01T08:53:26;10.7;;;2.8;;
63953;SDS011;50128;52.094;5.232;2022-08-01T08:55:15;12.2;;;3.1;;
63953;SDS011;50128;52.094;5.232;2022-08-01T08:57:03;12.6;;;2.9;;
63953;SDS011;50128;52.094;5.232;2022-08-01T08:58:51;13.3;;;3.3;;
63953;SDS011;50128;52.094;5.232;2022-08-01T09:02:25;14.6;;;3.3;;
63953;SDS011;50128;52.094;5.232;2022-08-01T09:04:11;11.6;;;3.0;;
63953;SDS011;50128;52.094;5.232;2022-08-01T09:05:59;14.0;;;3.9;;
63953;SDS011;50128;52.094;5.232;2022-08-01T09:07:46;12.3;;;3.3;;
63953;SDS011;50128;52.094;5.232;2022-08-01T09:09:32;13.9;;;3.3;;
63953;SDS011;50128;52.094;5.232;2022-08-01T09:11:19;12.8;;;3.1;;
63953;SDS011;50128;52.094;5.232;2022-08-01T09:14:56;9.1;;;2.4;;
63953;SDS011;50128;52.094;5.232;2022-08-01T09:16:44;12.3;;;2.9;;
63953;SDS011;50128;52.094;5.232;2022-08-01T09:18:32;10.7;;;2.8;;
63953;SDS011;50128;52.094;5.232;2022-08-01T09:20:22;7.4;;;2.31;;
63953;SDS011;50128;52.094;5.232;2022-08-01T09:22:10;12.5;;;2.5;;
63953;SDS011;50128;52.094;5.232;2022-08-01T09:24:03;10.8;;;2.31;;
63953;SDS011;50128;52.094;5.232;2022-08-01T09:27:39;9.1;;;2.5;;
63953;SDS011;50128;52.094;5.232;2022-08-01T09:29:29;10.4;;;3.0;;
63953;SDS011;50128;52.094;5.232;2022-08-01T09:31:18;9.81;;;2.31;;
63953;SDS011;50128;52.094;5.232;2022-08-01T09:33:05;8.31;;;2.6;;
63953;SDS011;50128;52.094;5.232;2022-08-01T09:34:51;6.9;;;2.1;;
63953;SDS011;50128;52.094;5.232;2022-08-01T09:36:46;9.21;;;2.21;;
63953;SDS011;50128;52.094;5.232;2022-08-01T09:38:41;10.21;;;2.31;;
63953;SDS011;50128;52.094;5.232;2022-08-01T09:42:30;7.8;;;2.0;;
63953;SDS011;50128;52.094;5.232;2022-08-01T09:44:17;8.1;;;2.1;;
63953;SDS011;50128;52.094;5.232;2022-08-01T09:46:04;7.2;;;2.31;;
63953;SDS011;50128;52.094;5.232;2022-08-01T09:47:55;9.9;;;2.8;;
63953;SDS011;50128;52.094;5.232;2022-08-01T09:49:42;10.21;;;2.31;;
63953;SDS011;50128;52.094;5.232;2022-08-01T09:51:30;7.4;;;1.7;;
63953;SDS011;50128;52.094;5.232;2022-08-01T09:53:20;9.21;;;2.0;;
63953;SDS011;50128;52.094;5.232;2022-08-01T09:56:57;10.0;;;2.4;;
63953;SDS011;50128;52.094;5.232;2022-08-01T09:58:55;8.71;;;2.5;;
63953;SDS011;50128;52.094;5.232;2022-08-01T10:00:42;9.1;;;2.21;;
63953;SDS011;50128;52.094;5.232;2022-08-01T10:02:44;9.6;;;2.31;;
63953;SDS011;50128;52.094;5.232;2022-08-01T10:04:31;7.3;;;2.1;;
63953;SDS011;50128;52.094;5.232;2022-08-01T10:06:19;8.0;;;2.0;;
63953;SDS011;50128;52.094;5.232;2022-08-01T10:08:07;9.9;;;2.31;;
63953;SDS011;50128;52.094;5.232;2022-08-01T10:09:53;8.31;;;2.21;;
63953;SDS011;50128;52.094;5.232;2022-08-01T10:13:29;11.6;;;2.4;;
63953;SDS011;50128;52.094;5.232;2022-08-01T10:15:16;8.81;;;2.1;;
63953;SDS011;50128;52.094;5.232;2022-08-01T10:17:05;8.9;;;2.1;;
63953;SDS011;50128;52.094;5.232;2022-08-01T10:20:42;7.6;;;2.31;;
63953;SDS011;50128;52.094;5.232;2022-08-01T10:22:31;10.21;;;2.1;;
63953;SDS011;50128;52.094;5.232;2022-08-01T10:26:06;12.1;;;2.6;;
63953;SDS011;50128;52.094;5.232;2022-08-01T10:27:56;9.5;;;2.4;;
63953;SDS011;50128;52.094;5.232;2022-08-01T10:29:47;8.5;;;2.21;;
63953;SDS011;50128;52.094;5.232;2022-08-01T10:31:39;7.2;;;1.7;;
63953;SDS011;50128;52.094;5.232;2022-08-01T10:33:26;6.4;;;1.7;;
63953;SDS011;50128;52.094;5.232;2022-08-01T10:35:17;8.2;;;1.8;;
63953;SDS011;50128;52.094;5.232;2022-08-01T10:37:04;7.3;;;1.7;;
63953;SDS011;50128;52.094;5.232;2022-08-01T10:40:41;9.6;;;1.9;;
63953;SDS011;50128;52.094;5.232;2022-08-01T10:42:29;6.1;;;1.5;;
63953;SDS011;50128;52.094;5.232;2022-08-01T10:44:15;6.0;;;1.9;;
63953;SDS011;50128;52.094;5.232;2022-08-01T10:46:03;5.9;;;1.7;;
63953;SDS011;50128;52.094;5.232;2022-08-01T10:47:53;9.5;;;2.4;;
63953;SDS011;50128;52.094;5.232;2022-08-01T10:49:47;7.3;;;2.0;;
63953;SDS011;50128;52.094;5.232;2022-08-01T10:51:39;8.31;;;1.8;;
63953;SDS011;50128;52.094;5.232;2022-08-01T10:55:14;7.1;;;1.8;;
63953;SDS011;50128;52.094;5.232;2022-08-01T10:57:00;7.1;;;1.8;;
63953;SDS011;50128;52.094;5.232;2022-08-01T10:58:46;6.5;;;1.8;;
63953;SDS011;50128;52.094;5.232;2022-08-01T11:00:33;6.0;;;1.7;;
63953;SDS011;50128;52.094;5.232;2022-08-01T11:02:25;7.5;;;1.7;;
63953;SDS011;50128;52.094;5.232;2022-08-01T11:04:14;9.71;;;1.9;;
63953;SDS011;50128;52.094;5.232;2022-08-01T11:07:51;6.8;;;1.9;;
63953;SDS011;50128;52.094;5.232;2022-08-01T11:09:40;6.7;;;1.8;;
63953;SDS011;50128;52.094;5.232;2022-08-01T11:11:28;6.1;;;1.7;;
63953;SDS011;50128;52.094;5.232;2022-08-01T11:13:16;7.0;;;1.9;;
63953;SDS011;50128;52.094;5.232;2022-08-01T11:15:47;6.2;;;1.7;;
63953;SDS011;50128;52.094;5.232;2022-08-01T11:17:34;7.1;;;1.8;;
63953;SDS011;50128;52.094;5.232;2022-08-01T11:19:21;7.0;;;1.8;;
63953;SDS011;50128;52.094;5.232;2022-08-01T11:21:08;6.9;;;1.5;;
63953;SDS011;50128;52.094;5.232;2022-08-01T11:25:02;5.4;;;1.6;;
63953;SDS011;50128;52.094;5.232;2022-08-01T11:27:11;6.1;;;1.6;;
63953;SDS011;50128;52.094;5.232;2022-08-01T11:29:10;7.1;;;1.8;;
63953;SDS011;50128;52.094;5.232;2022-08-01T11:31:34;5.5;;;1.5;;
63953;SDS011;50128;52.094;5.232;2022-08-01T11:33:47;7.0;;;1.8;;
63953;SDS011;50128;52.094;5.232;2022-08-01T11:35:35;6.5;;;1.7;;
63953;SDS011;50128;52.094;5.232;2022-08-01T11:39:13;7.1;;;1.8;;
63953;SDS011;50128;52.094;5.232;2022-08-01T11:41:10;7.5;;;1.7;;
63953;SDS011;50128;52.094;5.232;2022-08-01T11:43:15;7.2;;;1.7;;
63953;SDS011;50128;52.094;5.232;2022-08-01T11:45:19;6.4;;;1.6;;
63953;SDS011;50128;52.094;5.232;2022-08-01T11:47:07;6.0;;;1.2;;
63953;SDS011;50128;52.094;5.232;2022-08-01T11:49:21;3.9;;;1.11;;
63953;SDS011;50128;52.094;5.232;2022-08-01T11:51:14;5.4;;;1.3;;
63953;SDS011;50128;52.094;5.232;2022-08-01T11:53:02;3.3;;;0.9;;
63953;SDS011;50128;52.094;5.232;2022-08-01T11:54:51;2.4;;;0.9;;
63953;SDS011;50128;52.094;5.232;2022-08-01T11:56:41;2.9;;;1.0;;
63953;SDS011;50128;52.094;5.232;2022-08-01T12:00:15;4.2;;;1.0;;
63953;SDS011;50128;52.094;5.232;2022-08-01T12:02:03;5.0;;;1.3;;
63953;SDS011;50128;52.094;5.232;2022-08-01T12:04:00;5.4;;;1.11;;
63953;SDS011;50128;52.094;5.232;2022-08-01T12:05:47;4.0;;;1.11;;
63953;SDS011;50128;52.094;5.232;2022-08-01T12:07:33;4.7;;;1.2;;
63953;SDS011;50128;52.094;5.232;2022-08-01T12:09:21;5.9;;;1.0;;
63953;SDS011;50128;52.094;5.232;2022-08-01T12:11:08;6.9;;;1.4;;
63953;SDS011;50128;52.094;5.232;2022-08-01T12:14:52;5.6;;;1.2;;
63953;SDS011;50128;52.094;5.232;2022-08-01T12:16:40;4.41;;;1.2;;
63953;SDS011;50128;52.094;5.232;2022-08-01T12:18:37;3.9;;;0.8;;
63953;SDS011;50128;52.094;5.232;2022-08-01T12:20:25;3.2;;;1.0;;
63953;SDS011;50128;52.094;5.232;2022-08-01T12:22:16;4.0;;;1.11;;
63953;SDS011;50128;52.094;5.232;2022-08-01T12:24:02;4.91;;;1.0;;
63953;SDS011;50128;52.094;5.232;2022-08-01T12:25:50;4.3;;;1.11;;
63953;SDS011;50128;52.094;5.232;2022-08-01T12:29:34;4.8;;;1.2;;
63953;SDS011;50128;52.094;5.232;2022-08-01T12:31:30;4.41;;;1.11;;
63953;SDS011;50128;52.094;5.232;2022-08-01T12:33:17;3.1;;;0.9;;
63953;SDS011;50128;52.094;5.232;2022-08-01T12:35:06;5.4;;;1.3;;
63953;SDS011;50128;52.094;5.232;2022-08-01T12:36:56;3.5;;;1.11;;
63953;SDS011;50128;52.094;5.232;2022-08-01T12:38:44;5.5;;;1.4;;
63953;SDS011;50128;52.094;5.232;2022-08-01T12:40:40;4.2;;;1.3;;
63953;SDS011;50128;52.094;5.232;2022-08-01T12:44:15;4.1;;;1.0;;
63953;SDS011;50128;52.094;5.232;2022-08-01T12:46:02;4.7;;;1.11;;
63953;SDS011;50128;52.094;5.232;2022-08-01T12:47:49;2.4;;;0.8;;
63953;SDS011;50128;52.094;5.232;2022-08-01T12:49:38;3.4;;;0.8;;
63953;SDS011;50128;52.094;5.232;2022-08-01T12:51:27;2.7;;;0.7;;
63953;SDS011;50128;52.094;5.232;2022-08-01T12:53:14;3.0;;;0.9;;
63953;SDS011;50128;52.094;5.232;2022-08-01T12:56:57;3.9;;;1.11;;